DRK400 VQPR-VNKT
Flight info
| Callsign | DRK400 |
|---|---|
| Flight time | N/A |
| Altitude | 36000 |
| Route | PRO G348 KIMTI KMTI2R |
| Aircraft | A320/M-SDE3FGHIRWY/LB1 |
Departure
| Time | 2025-09-07 08:34 |
|---|---|
| Airport | Paro International Airport (VQPR) |
Arrival
| Time | N/A |
|---|---|
| Airport | Tribhuvan International Airport (VNKT) |
| Time | Latitude | Longitude | Altitude | Speed | Heading |
|---|---|---|---|---|---|
| 2025-09-07 08:12 | 27.40601 | 89.42127 | 7374 ft | 0 kts | 240° |
| 2025-09-07 08:22 | 27.40619 | 89.42160 | 7347 ft | 3 kts | 232° |
| 2025-09-07 08:23 | 27.40629 | 89.42174 | 7347 ft | 0 kts | 231° |
| 2025-09-07 08:25 | 27.40623 | 89.42171 | 7346 ft | 2 kts | 209° |
| 2025-09-07 08:25 | 27.40595 | 89.42194 | 7345 ft | 7 kts | 146° |
| 2025-09-07 08:26 | 27.40444 | 89.42287 | 7339 ft | 9 kts | 152° |
| 2025-09-07 08:26 | 27.40391 | 89.42323 | 7337 ft | 9 kts | 149° |
| 2025-09-07 08:27 | 27.40292 | 89.42387 | 7331 ft | 6 kts | 149° |
| 2025-09-07 08:27 | 27.40251 | 89.42415 | 7328 ft | 8 kts | 149° |
| 2025-09-07 08:28 | 27.40162 | 89.42472 | 7323 ft | 7 kts | 150° |
| 2025-09-07 08:28 | 27.40077 | 89.42524 | 7322 ft | 10 kts | 151° |
| 2025-09-07 08:29 | 27.39918 | 89.42625 | 7319 ft | 14 kts | 148° |
| 2025-09-07 08:29 | 27.39752 | 89.42732 | 7314 ft | 15 kts | 149° |
| 2025-09-07 08:30 | 27.39446 | 89.42928 | 7304 ft | 12 kts | 146° |
| 2025-09-07 08:31 | 27.39426 | 89.42977 | 7301 ft | 0 kts | 82° |
| 2025-09-07 08:31 | 27.39462 | 89.43016 | 7301 ft | 5 kts | 320° |
| 2025-09-07 08:32 | 27.39484 | 89.43006 | 7302 ft | 0 kts | 333° |
| 2025-09-07 08:32 | 27.39616 | 89.42925 | 7310 ft | 58 kts | 331° |
| 2025-09-07 08:32 | 27.41090 | 89.41957 | 7496 ft | 168 kts | 333° |
| 2025-09-07 08:33 | 27.43127 | 89.40511 | 8632 ft | 192 kts | 295° |
| 2025-09-07 08:33 | 27.44072 | 89.37613 | 9515 ft | 203 kts | 277° |
| 2025-09-07 08:34 | 27.44343 | 89.32845 | 10918 ft | 204 kts | 277° |
| 2025-09-07 08:35 | 27.45584 | 89.30602 | 11895 ft | 203 kts | 311° |